Time;durP1;ratioP1;P1;durP2;ratioP2;P2;SDS_P1;SDS_P2;PMS_P1;PMS_P2;Temp;Humidity;BMP_temperature;BMP_pressure;BME280_temperature;BME280_humidity;BME280_pressure;Samples;Min_cycle;Max_cycle;Signal;HPM_P1;HPM_P2
2022/08/29 00:00:49;;;;;;;2.60;2.40;;;15.40;99.90;;;;;;6063547;23;20253;-56
2022/08/29 00:03:18;;;;;;;3.87;2.23;;;15.30;99.90;;;;;;6061846;23;20187;-56
2022/08/29 00:05:47;;;;;;;5.27;2.50;;;15.30;99.90;;;;;;6063782;23;20190;-56
2022/08/29 00:08:19;;;;;;;2.90;2.70;;;15.30;99.90;;;;;;6063755;23;20168;-56
2022/08/29 00:10:48;;;;;;;3.13;2.67;;;15.20;99.90;;;;;;6040165;23;20241;-57
2022/08/29 00:13:17;;;;;;;2.53;2.40;;;15.20;99.90;;;;;;6039360;23;20249;-57
2022/08/29 00:15:45;;;;;;;3.37;2.27;;;15.20;99.90;;;;;;6064656;23;20202;-56
2022/08/29 00:18:15;;;;;;;2.93;2.50;;;15.20;99.90;;;;;;6065253;23;20188;-57
2022/08/29 00:20:44;;;;;;;2.60;2.40;;;15.10;99.90;;;;;;6064024;23;20237;-57
2022/08/29 00:23:13;;;;;;;2.83;2.50;;;15.10;99.90;;;;;;6039337;23;20255;-56
2022/08/29 00:25:44;;;;;;;4.40;2.70;;;15.10;99.90;;;;;;6064702;23;20855;-56
2022/08/29 00:28:13;;;;;;;2.47;2.27;;;15.10;99.90;;;;;;6064933;23;20256;-56
2022/08/29 00:30:43;;;;;;;2.47;2.37;;;15.10;99.90;;;;;;6038708;23;20164;-58
2022/08/29 00:33:11;;;;;;;2.40;2.30;;;15.00;99.90;;;;;;6063263;23;20255;-58
2022/08/29 00:35:42;;;;;;;3.03;2.47;;;15.00;99.90;;;;;;6065244;23;20208;-58
2022/08/29 00:38:12;;;;;;;3.77;2.43;;;15.00;99.90;;;;;;6064126;23;20202;-58
2022/08/29 00:40:46;;;;;;;2.37;2.20;;;15.00;99.90;;;;;;6065532;23;20219;-56
2022/08/29 00:43:20;;;;;;;3.57;2.90;;;14.90;99.90;;;;;;6063626;23;20228;-57
2022/08/29 00:45:57;;;;;;;2.47;2.30;;;14.90;99.90;;;;;;6065177;23;20168;-59
2022/08/29 00:48:26;;;;;;;3.00;2.80;;;14.90;99.90;;;;;;6063518;23;20538;-56
2022/08/29 00:51:01;;;;;;;3.50;2.40;;;14.90;99.90;;;;;;6065690;23;20635;-57
2022/08/29 00:53:34;;;;;;;2.87;2.53;;;14.90;99.90;;;;;;6064068;23;20563;-57
2022/08/29 00:56:06;;;;;;;2.50;2.40;;;14.80;99.90;;;;;;6065744;23;20809;-57
2022/08/29 00:58:38;;;;;;;3.47;2.60;;;14.80;99.90;;;;;;6064262;23;20237;-57
2022/08/29 01:01:07;;;;;;;3.97;2.53;;;14.80;99.90;;;;;;6063497;23;20702;-57
2022/08/29 01:03:37;;;;;;;4.50;2.60;;;14.80;99.90;;;;;;6062448;23;20489;-57
2022/08/29 01:06:12;;;;;;;4.13;2.83;;;14.70;99.90;;;;;;6064869;23;20657;-57
2022/08/29 01:08:42;;;;;;;3.27;2.60;;;14.70;99.90;;;;;;6063782;23;20195;-57
2022/08/29 01:14:01;;;;;;;2.60;2.50;;;14.70;99.90;;;;;;6063110;23;20169;-58
2022/08/29 01:16:30;;;;;;;5.10;2.70;;;14.80;99.90;;;;;;6036918;23;20243;-57
2022/08/29 01:19:06;;;;;;;3.07;2.80;;;14.90;99.90;;;;;;6064146;23;20170;-57
2022/08/29 01:21:41;;;;;;;3.17;2.60;;;14.90;99.90;;;;;;6066361;23;20188;-57
2022/08/29 01:24:20;;;;;;;4.57;2.70;;;14.90;99.90;;;;;;6064427;23;20232;-57
2022/08/29 01:26:49;;;;;;;2.60;2.40;;;15.00;99.90;;;;;;6065874;23;20223;-57
2022/08/29 01:29:17;;;;;;;5.20;2.73;;;15.00;99.90;;;;;;6040254;23;20578;-57
2022/08/29 01:31:47;;;;;;;3.37;2.40;;;15.00;99.90;;;;;;6065158;23;20170;-57
2022/08/29 01:34:28;;;;;;;2.87;2.60;;;15.00;99.90;;;;;;6063817;23;20658;-57
2022/08/29 01:36:58;;;;;;;5.33;2.80;;;15.00;99.90;;;;;;6066396;23;20173;-57
2022/08/29 01:39:30;;;;;;;2.83;2.63;;;15.00;99.90;;;;;;6064983;23;20244;-57
2022/08/29 01:42:01;;;;;;;4.97;2.40;;;15.00;99.90;;;;;;6066408;23;20192;-57
2022/08/29 01:44:30;;;;;;;4.50;2.90;;;15.00;99.90;;;;;;6062795;23;20448;-58
2022/08/29 01:47:00;;;;;;;2.70;2.50;;;14.90;99.90;;;;;;6066029;23;20168;-58
2022/08/29 01:49:32;;;;;;;3.07;2.60;;;15.00;99.90;;;;;;6065432;23;20172;-58
2022/08/29 01:52:01;;;;;;;3.00;2.80;;;14.90;99.90;;;;;;6065229;23;20164;-57
2022/08/29 01:54:31;;;;;;;5.13;3.00;;;14.90;99.90;;;;;;6038885;23;20176;-57
2022/08/29 01:57:01;;;;;;;6.80;2.80;;;14.90;99.90;;;;;;6065410;23;20173;-57
2022/08/29 01:59:32;;;;;;;5.57;2.83;;;14.90;99.90;;;;;;6064782;23;20176;-57
2022/08/29 02:02:03;;;;;;;3.80;2.43;;;14.80;99.90;;;;;;6039076;23;20626;-57
2022/08/29 02:04:33;;;;;;;2.90;2.50;;;14.80;99.90;;;;;;6063899;23;20176;-57
2022/08/29 02:07:02;;;;;;;2.80;2.57;;;14.80;99.90;;;;;;6063707;23;20172;-56
2022/08/29 02:09:31;;;;;;;3.00;2.77;;;14.80;99.90;;;;;;6064297;23;20172;-58
2022/08/29 02:12:05;;;;;;;3.10;2.90;;;14.90;99.90;;;;;;6065841;23;20362;-58
2022/08/29 02:14:34;;;;;;;5.27;3.10;;;14.90;99.90;;;;;;6063185;23;20594;-57
2022/08/29 02:17:05;;;;;;;3.83;2.77;;;14.90;99.90;;;;;;6038735;23;20596;-57
2022/08/29 02:19:37;;;;;;;3.73;2.63;;;14.80;99.90;;;;;;6040116;23;20176;-58
2022/08/29 02:22:07;;;;;;;3.17;2.63;;;14.90;99.90;;;;;;6063963;23;20184;-58
2022/08/29 02:24:37;;;;;;;3.13;2.40;;;14.90;99.90;;;;;;6065700;23;20200;-58
2022/08/29 02:27:06;;;;;;;3.87;2.73;;;14.80;99.90;;;;;;6038226;23;20260;-58
2022/08/29 02:29:37;;;;;;;3.13;2.80;;;14.80;99.90;;;;;;6063941;23;20157;-58
2022/08/29 02:32:11;;;;;;;8.07;3.20;;;14.80;99.90;;;;;;6064635;23;20259;-57
2022/08/29 02:34:42;;;;;;;5.67;2.97;;;14.80;99.90;;;;;;6038810;23;20618;-57
2022/08/29 02:37:14;;;;;;;3.23;2.80;;;14.80;99.90;;;;;;6015229;23;20561;-58
2022/08/29 02:39:44;;;;;;;4.50;3.10;;;14.80;99.90;;;;;;6039988;23;20546;-58
2022/08/29 02:42:13;;;;;;;4.37;2.87;;;14.80;99.90;;;;;;6064506;23;20239;-57
2022/08/29 02:44:41;;;;;;;4.37;2.97;;;14.80;99.90;;;;;;6040037;23;20168;-57
2022/08/29 02:47:09;;;;;;;3.23;2.83;;;14.80;99.90;;;;;;6039906;23;20168;-57
2022/08/29 02:49:38;;;;;;;3.03;2.83;;;14.80;99.90;;;;;;6064289;23;20253;-58
2022/08/29 02:52:07;;;;;;;3.63;2.90;;;14.80;99.90;;;;;;6040469;23;20199;-57
2022/08/29 02:54:36;;;;;;;3.47;3.10;;;14.80;99.90;;;;;;6063311;23;20169;-57
2022/08/29 02:57:06;;;;;;;6.20;3.27;;;14.80;99.90;;;;;;6064192;23;20217;-58
2022/08/29 02:59:35;;;;;;;6.40;3.20;;;14.80;99.90;;;;;;6064255;23;20653;-58
2022/08/29 03:02:06;;;;;;;4.20;3.20;;;14.70;99.90;;;;;;6038811;23;20195;-58
2022/08/29 03:04:34;;;;;;;3.83;3.13;;;14.70;99.90;;;;;;6063783;23;20183;-56
2022/08/29 03:07:04;;;;;;;4.30;3.10;;;14.70;99.90;;;;;;6039772;23;20253;-56
2022/08/29 03:09:32;;;;;;;4.23;3.27;;;14.60;99.90;;;;;;6065392;23;20179;-57
2022/08/29 03:12:01;;;;;;;4.93;3.00;;;14.60;99.90;;;;;;6038587;23;20259;-56
2022/08/29 03:14:31;;;;;;;5.37;2.73;;;14.60;99.90;;;;;;6062307;23;20243;-56
2022/08/29 03:17:00;;;;;;;3.40;3.20;;;14.50;99.90;;;;;;6064217;23;20179;-57
2022/08/29 03:19:28;;;;;;;3.33;3.07;;;14.50;99.90;;;;;;6064460;23;20259;-57
2022/08/29 03:21:59;;;;;;;7.70;3.60;;;14.40;99.90;;;;;;6064520;23;20190;-57
2022/08/29 03:24:28;;;;;;;3.67;3.33;;;14.40;99.90;;;;;;6063358;23;20663;-57
2022/08/29 03:26:56;;;;;;;3.97;3.03;;;14.40;99.90;;;;;;6037862;23;20196;-56
2022/08/29 03:29:26;;;;;;;4.50;3.43;;;14.30;99.90;;;;;;6064159;23;20190;-56
2022/08/29 03:31:57;;;;;;;6.37;3.60;;;14.30;99.90;;;;;;6063163;23;20163;-57
2022/08/29 03:34:26;;;;;;;7.97;3.50;;;14.30;99.90;;;;;;6063138;23;20169;-56
2022/08/29 03:36:54;;;;;;;6.83;3.60;;;14.30;99.90;;;;;;6039349;23;20605;-59
2022/08/29 03:39:23;;;;;;;4.93;3.63;;;14.30;99.90;;;;;;6063476;23;20175;-58
2022/08/29 03:41:52;;;;;;;6.77;3.50;;;14.30;99.90;;;;;;6063447;23;20246;-58
2022/08/29 03:44:20;;;;;;;3.90;3.60;;;14.30;99.90;;;;;;6063985;23;20275;-58
2022/08/29 03:46:49;;;;;;;3.60;3.03;;;14.30;99.90;;;;;;6063784;23;20168;-57
2022/08/29 03:49:18;;;;;;;13.50;3.80;;;14.30;99.90;;;;;;6063823;23;20171;-57
2022/08/29 03:51:48;;;;;;;3.93;3.53;;;14.30;99.90;;;;;;6063473;23;20243;-58
2022/08/29 03:54:17;;;;;;;5.27;3.63;;;14.30;99.90;;;;;;6039032;23;20193;-57
2022/08/29 03:56:46;;;;;;;7.47;3.77;;;14.30;99.90;;;;;;6063599;23;20256;-58
2022/08/29 03:59:15;;;;;;;4.90;3.40;;;14.40;99.90;;;;;;6063233;23;20172;-58
2022/08/29 04:01:46;;;;;;;4.57;3.70;;;14.30;99.90;;;;;;6062783;23;20294;-58
2022/08/29 04:05:05;;;;;;;4.53;3.13;;;14.30;99.90;;;;;;6036493;23;20195;-58
2022/08/29 04:07:07;;;;;;;3.90;3.50;;;14.30;99.90;;;;;;6037307;23;20223;-58
2022/08/29 04:09:36;;;;;;;6.40;3.50;;;14.30;99.90;;;;;;6064063;23;20605;-58
2022/08/29 04:12:10;;;;;;;6.33;3.73;;;14.20;99.90;;;;;;6037326;23;20541;-58
2022/08/29 04:14:38;;;;;;;4.50;3.30;;;14.30;99.90;;;;;;6062370;23;20677;-58
2022/08/29 04:17:09;;;;;;;3.40;3.10;;;14.20;99.90;;;;;;6063934;23;20168;-58
2022/08/29 04:19:37;;;;;;;3.70;3.50;;;14.20;99.90;;;;;;6039107;23;20633;-58
2022/08/29 04:22:08;;;;;;;3.80;3.40;;;14.20;99.90;;;;;;6038397;23;20215;-58
2022/08/29 04:24:36;;;;;;;4.93;3.43;;;14.20;99.90;;;;;;6064753;23;20248;-58
2022/08/29 04:27:05;;;;;;;5.20;3.77;;;14.20;99.90;;;;;;5983809;23;20201;-57
2022/08/29 04:29:37;;;;;;;4.83;3.27;;;14.20;99.90;;;;;;6004277;23;20602;-58
2022/08/29 04:32:05;;;;;;;7.87;4.17;;;14.20;99.90;;;;;;6028345;23;20242;-58
2022/08/29 04:34:34;;;;;;;5.73;3.83;;;14.20;99.90;;;;;;6006553;23;20257;-58
2022/08/29 04:37:02;;;;;;;3.70;3.50;;;14.20;99.90;;;;;;6006678;23;20230;-58
2022/08/29 04:39:33;;;;;;;7.37;3.77;;;14.10;99.90;;;;;;6007425;23;20248;-59
2022/08/29 04:42:02;;;;;;;4.00;3.47;;;14.10;99.90;;;;;;6026975;23;20294;-58
2022/08/29 04:44:30;;;;;;;3.87;3.57;;;14.10;99.90;;;;;;6006695;23;20197;-58
2022/08/29 04:47:01;;;;;;;4.23;3.60;;;14.10;99.90;;;;;;6007356;23;20627;-58
2022/08/29 04:49:30;;;;;;;4.90;3.93;;;14.10;99.90;;;;;;6006334;23;20243;-58
2022/08/29 04:51:58;;;;;;;5.57;3.70;;;14.10;99.90;;;;;;6006705;23;20246;-58
2022/08/29 04:54:26;;;;;;;6.37;3.80;;;14.10;99.90;;;;;;6006418;23;20252;-58
2022/08/29 04:56:56;;;;;;;7.20;3.90;;;14.10;99.90;;;;;;6008801;23;20559;-58
2022/08/29 04:59:25;;;;;;;5.17;3.80;;;14.10;99.90;;;;;;6030004;23;20197;-58
2022/08/29 05:01:54;;;;;;;3.73;3.43;;;14.10;99.90;;;;;;6004528;23;20255;-58
2022/08/29 05:04:22;;;;;;;5.33;3.70;;;14.10;99.90;;;;;;6008504;23;20178;-59
2022/08/29 05:06:51;;;;;;;5.93;3.47;;;14.10;99.90;;;;;;6009189;23;20475;-58
2022/08/29 05:09:19;;;;;;;5.53;3.23;;;14.10;99.90;;;;;;6007387;23;20249;-58
2022/08/29 05:11:50;;;;;;;4.47;3.30;;;14.10;99.90;;;;;;6008059;23;20174;-58
2022/08/29 05:14:20;;;;;;;7.67;3.90;;;14.10;99.90;;;;;;6006581;23;20173;-58
2022/08/29 05:16:48;;;;;;;5.83;3.90;;;14.10;99.90;;;;;;6007284;23;20174;-58
2022/08/29 05:19:17;;;;;;;5.67;3.53;;;14.10;99.90;;;;;;6008101;23;20173;-58
2022/08/29 05:21:45;;;;;;;7.97;3.80;;;14.10;99.90;;;;;;6007636;23;20178;-58
2022/08/29 05:24:16;;;;;;;5.27;3.40;;;14.10;99.90;;;;;;6009493;23;20176;-58
2022/08/29 05:26:45;;;;;;;6.53;3.50;;;14.20;99.90;;;;;;6051194;23;20287;-57
2022/08/29 05:29:14;;;;;;;7.73;3.63;;;14.20;99.90;;;;;;6039900;23;20180;-57
2022/08/29 05:31:44;;;;;;;9.47;4.10;;;14.20;99.90;;;;;;6038383;23;20201;-57
2022/08/29 05:34:13;;;;;;;9.97;4.10;;;14.20;99.90;;;;;;6063507;23;20168;-57
2022/08/29 05:37:03;;;;;;;8.57;4.43;;;14.20;99.90;;;;;;6066669;23;20169;-58
2022/08/29 05:39:31;;;;;;;10.47;3.93;;;14.20;99.90;;;;;;6064726;23;20172;-58
2022/08/29 05:42:00;;;;;;;5.57;3.80;;;14.20;99.90;;;;;;6064563;23;20576;-58
2022/08/29 05:44:31;;;;;;;3.97;3.57;;;14.30;99.90;;;;;;6065717;23;20510;-57
2022/08/29 05:47:05;;;;;;;5.83;3.80;;;14.30;99.90;;;;;;6066086;23;20618;-58
2022/08/29 05:49:36;;;;;;;8.60;4.00;;;14.40;99.90;;;;;;6065324;23;20280;-57
2022/08/29 05:52:05;;;;;;;6.43;3.60;;;14.40;99.90;;;;;;6065589;23;20180;-57
2022/08/29 05:54:36;;;;;;;7.17;4.03;;;14.50;99.90;;;;;;6039174;23;20610;-57
2022/08/29 05:57:06;;;;;;;4.23;3.83;;;14.60;99.90;;;;;;6065647;23;20253;-58
2022/08/29 05:59:35;;;;;;;7.37;3.60;;;14.70;99.90;;;;;;6064851;23;20486;-57
2022/08/29 06:02:07;;;;;;;7.07;4.13;;;14.90;99.90;;;;;;6061690;23;20239;-58
2022/08/29 06:04:36;;;;;;;4.13;3.57;;;15.00;99.90;;;;;;6039317;23;20610;-57
2022/08/29 06:07:06;;;;;;;5.63;3.33;;;15.10;99.90;;;;;;6062420;23;20180;-57
2022/08/29 06:09:35;;;;;;;8.13;3.80;;;15.20;99.90;;;;;;6062790;23;20582;-57
2022/08/29 06:12:04;;;;;;;5.07;3.70;;;15.30;99.90;;;;;;6063337;23;20194;-58
2022/08/29 06:14:33;;;;;;;4.87;3.33;;;15.50;99.90;;;;;;6064184;23;20512;-57
2022/08/29 06:17:01;;;;;;;4.90;3.73;;;15.60;99.90;;;;;;6037052;23;20185;-57
2022/08/29 06:19:34;;;;;;;5.00;4.00;;;15.70;99.90;;;;;;6040770;23;20244;-57
2022/08/29 06:22:04;;;;;;;12.80;3.57;;;15.80;99.90;;;;;;6039704;23;20219;-57
2022/08/29 06:24:39;;;;;;;7.80;3.60;;;16.00;99.90;;;;;;6063631;23;20217;-57
2022/08/29 06:27:11;;;;;;;7.67;4.07;;;16.10;99.90;;;;;;6038918;23;20196;-58
2022/08/29 06:29:40;;;;;;;8.60;3.77;;;16.30;99.90;;;;;;6064961;23;20188;-58
2022/08/29 06:32:11;;;;;;;5.97;3.50;;;16.30;99.90;;;;;;6064129;23;20483;-57
2022/08/29 06:34:41;;;;;;;11.03;4.17;;;16.40;99.90;;;;;;6064798;23;20248;-58
2022/08/29 06:37:09;;;;;;;9.30;3.90;;;16.50;99.90;;;;;;6038416;23;20203;-57
2022/08/29 06:39:38;;;;;;;5.23;3.57;;;16.50;99.90;;;;;;6063014;23;20208;-57
2022/08/29 06:42:06;;;;;;;7.33;3.87;;;16.60;99.90;;;;;;6063886;23;20196;-57
2022/08/29 06:44:35;;;;;;;12.03;4.07;;;16.80;99.90;;;;;;6062974;23;20188;-57
2022/08/29 06:47:07;;;;;;;6.63;3.90;;;16.80;99.90;;;;;;6063538;23;20185;-57
2022/08/29 06:49:35;;;;;;;8.37;3.80;;;16.80;99.90;;;;;;6063949;23;20242;-57
2022/08/29 06:52:05;;;;;;;10.40;4.07;;;16.90;99.90;;;;;;6063554;23;20606;-57
2022/08/29 06:54:34;;;;;;;5.77;3.93;;;17.10;99.90;;;;;;6065193;23;20199;-57
2022/08/29 06:57:03;;;;;;;8.63;3.90;;;17.20;99.90;;;;;;6039412;23;20632;-59
2022/08/29 06:59:31;;;;;;;4.80;3.30;;;17.30;99.90;;;;;;6066094;23;20194;-59
2022/08/29 07:02:00;;;;;;;4.80;3.27;;;17.50;99.90;;;;;;6062703;23;20251;-58
2022/08/29 07:04:29;;;;;;;6.53;3.33;;;17.50;99.90;;;;;;6060931;23;20202;-58
2022/08/29 07:06:58;;;;;;;8.33;3.33;;;17.30;99.90;;;;;;6063786;23;20222;-58
2022/08/29 07:09:29;;;;;;;12.60;3.60;;;17.00;99.90;;;;;;6061074;23;20619;-58
2022/08/29 07:11:58;;;;;;;10.70;3.80;;;17.00;99.90;;;;;;6062368;23;20197;-58
2022/08/29 07:14:26;;;;;;;4.00;3.33;;;17.00;99.90;;;;;;6039280;23;20225;-58
2022/08/29 07:16:55;;;;;;;5.87;3.13;;;17.00;99.90;;;;;;6040274;23;20178;-58
2022/08/29 07:19:23;;;;;;;6.40;3.40;;;16.90;99.90;;;;;;6065705;23;20533;-58
2022/08/29 07:21:53;;;;;;;8.13;3.40;;;16.90;99.90;;;;;;6065452;23;20646;-58
2022/08/29 07:24:26;;;;;;;5.97;3.60;;;16.90;99.90;;;;;;6064926;23;20197;-55
2022/08/29 07:26:55;;;;;;;7.57;3.70;;;16.90;99.90;;;;;;6065870;23;20228;-58
2022/08/29 07:29:23;;;;;;;6.93;3.50;;;16.90;99.90;;;;;;6065340;23;20176;-59
2022/08/29 07:31:52;;;;;;;5.07;3.30;;;16.90;99.90;;;;;;6039913;23;20263;-58
2022/08/29 07:34:21;;;;;;;11.50;3.87;;;17.00;99.90;;;;;;6039965;23;20226;-58
2022/08/29 07:36:49;;;;;;;3.23;3.00;;;17.30;99.90;;;;;;6066345;23;20251;-58
2022/08/29 07:39:19;;;;;;;5.20;3.23;;;17.50;99.90;;;;;;6066126;23;20261;-58
2022/08/29 07:41:49;;;;;;;6.63;2.90;;;17.80;99.90;;;;;;6066381;23;20168;-58
2022/08/29 07:44:18;;;;;;;3.37;3.00;;;18.20;99.90;;;;;;6065107;23;20275;-58
2022/08/29 07:46:47;;;;;;;4.33;3.30;;;18.50;99.90;;;;;;6040592;23;20251;-58
2022/08/29 07:49:15;;;;;;;8.27;3.00;;;18.60;99.90;;;;;;6040270;23;20805;-56
2022/08/29 07:51:44;;;;;;;5.63;3.00;;;18.70;99.90;;;;;;6066227;23;20204;-56
2022/08/29 07:54:15;;;;;;;4.43;2.90;;;18.90;99.90;;;;;;6065688;23;20164;-58
2022/08/29 07:56:45;;;;;;;5.33;3.00;;;19.00;99.90;;;;;;6066318;23;20168;-56
2022/08/29 07:59:15;;;;;;;6.63;3.17;;;19.00;99.90;;;;;;6065723;23;20196;-56
2022/08/29 08:01:43;;;;;;;5.20;2.67;;;18.90;99.90;;;;;;6066350;23;20172;-56
2022/08/29 08:04:12;;;;;;;11.30;3.17;;;18.70;99.90;;;;;;6039686;23;20192;-55
2022/08/29 08:06:42;;;;;;;3.80;2.83;;;18.60;99.90;;;;;;6066193;23;20218;-57
2022/08/29 08:09:12;;;;;;;3.87;2.93;;;18.40;99.90;;;;;;6065403;23;20167;-58
2022/08/29 08:11:42;;;;;;;3.50;2.70;;;18.30;99.90;;;;;;6065146;23;20235;-58
2022/08/29 08:14:11;;;;;;;5.13;2.93;;;18.30;99.90;;;;;;6039602;23;20192;-58
2022/08/29 08:16:41;;;;;;;7.67;2.93;;;18.40;99.90;;;;;;6064383;23;20247;-58
2022/08/29 08:19:12;;;;;;;7.87;3.30;;;18.70;99.90;;;;;;6065555;23;20213;-58
2022/08/29 08:21:40;;;;;;;5.80;2.80;;;19.20;99.90;;;;;;6066010;23;20191;-59
2022/08/29 08:24:17;;;;;;;2.93;2.60;;;19.60;99.90;;;;;;6065997;23;20191;-58
2022/08/29 08:26:47;;;;;;;7.17;2.30;;;20.00;99.90;;;;;;6065401;23;20200;-58
2022/08/29 08:29:16;;;;;;;5.60;2.70;;;20.40;99.90;;;;;;6041355;23;20594;-58
2022/08/29 08:31:48;;;;;;;6.57;2.57;;;20.50;99.90;;;;;;6068318;23;20168;-55
2022/08/29 08:34:17;;;;;;;4.07;2.60;;;20.60;99.90;;;;;;6067015;23;20175;-56
2022/08/29 08:36:46;;;;;;;7.90;2.83;;;20.70;99.90;;;;;;6068117;23;20164;-56
2022/08/29 08:39:15;;;;;;;8.07;2.70;;;20.70;99.90;;;;;;6067797;23;20164;-56
2022/08/29 08:41:54;;;;;;;7.67;3.07;;;20.60;99.90;;;;;;6042086;23;20618;-57
2022/08/29 08:44:56;;;;;;;8.00;2.97;;;20.40;99.90;;;;;;6066722;23;20192;-57
2022/08/29 08:47:30;;;;;;;6.93;2.70;;;20.60;99.90;;;;;;6007440;23;20230;-57
2022/08/29 08:50:05;;;;;;;7.47;2.87;;;20.90;99.90;;;;;;6067288;23;20555;-57
2022/08/29 08:52:43;;;;;;;3.80;2.70;;;21.00;99.90;;;;;;6042438;23;20259;-57
2022/08/29 08:55:34;;;;;;;2.93;2.73;;;21.20;99.90;;;;;;6066825;23;20167;-57
2022/08/29 08:58:09;;;;;;;5.90;2.83;;;21.40;99.90;;;;;;6067571;23;20172;-58
2022/08/29 09:00:44;;;;;;;5.10;2.70;;;21.50;99.90;;;;;;6067679;23;20192;-58
2022/08/29 09:03:37;;;;;;;3.57;3.20;;;21.60;99.90;;;;;;6067141;23;20164;-57
2022/08/29 09:06:15;;;;;;;6.90;3.53;;;21.80;99.90;;;;;;6067011;23;20264;-57
2022/08/29 09:08:50;;;;;;;7.77;3.10;;;21.80;99.90;;;;;;6041445;23;20172;-58
2022/08/29 09:11:27;;;;;;;3.37;2.90;;;21.90;99.90;;;;;;6067545;23;20595;-58
2022/08/29 09:14:07;;;;;;;4.37;2.97;;;21.90;99.90;;;;;;6066907;23;20692;-58
2022/08/29 09:16:40;;;;;;;7.20;3.00;;;22.20;99.90;;;;;;6042466;23;20194;-58
2022/08/29 09:19:15;;;;;;;4.90;2.87;;;22.30;99.90;;;;;;6067165;23;20235;-57
2022/08/29 09:21:50;;;;;;;4.90;2.80;;;22.30;99.90;;;;;;6068037;23;20199;-58
2022/08/29 09:24:26;;;;;;;4.87;3.40;;;22.30;99.90;;;;;;6041747;23;20199;-58
2022/08/29 09:26:55;;;;;;;6.30;3.13;;;22.40;99.90;;;;;;6067327;23;20565;-57
2022/08/29 09:29:26;;;;;;;5.63;3.50;;;22.40;99.90;;;;;;6017773;23;20256;-58
2022/08/29 09:32:07;;;;;;;3.37;2.93;;;22.50;99.90;;;;;;6042438;23;20198;-57
2022/08/29 09:34:40;;;;;;;5.50;3.00;;;22.60;99.90;;;;;;6066596;23;20168;-58
2022/08/29 09:37:31;;;;;;;3.60;3.23;;;22.60;99.90;;;;;;6067371;23;20170;-58
2022/08/29 09:40:07;;;;;;;6.17;3.57;;;22.80;99.90;;;;;;6066241;23;20184;-58
2022/08/29 09:42:40;;;;;;;6.67;3.27;;;22.90;99.90;;;;;;6067404;23;20170;-57
2022/08/29 09:45:23;;;;;;;5.77;3.30;;;23.00;99.90;;;;;;6067266;23;20193;-57
2022/08/29 09:48:09;;;;;;;6.07;3.60;;;23.00;99.90;;;;;;6041758;23;20175;-58
2022/08/29 09:50:40;;;;;;;4.47;3.03;;;23.30;99.90;;;;;;6067019;23;20246;-60
2022/08/29 09:53:08;;;;;;;6.27;3.40;;;23.10;99.90;;;;;;6067169;23;20175;-58
2022/08/29 09:55:52;;;;;;;5.80;3.60;;;23.00;99.90;;;;;;6067450;23;20167;-58
2022/08/29 09:58:30;;;;;;;5.93;3.27;;;23.10;99.90;;;;;;6066723;23;20594;-58
2022/08/29 10:01:06;;;;;;;4.17;3.30;;;23.30;99.90;;;;;;6066314;23;20195;-58
2022/08/29 10:03:37;;;;;;;7.57;3.53;;;23.50;99.90;;;;;;6066959;23;20951;-58
2022/08/29 10:06:14;;;;;;;6.50;3.17;;;23.70;99.90;;;;;;6041397;23;20199;-58
2022/08/29 10:08:55;;;;;;;3.70;3.40;;;23.90;99.90;;;;;;6041047;23;20164;-58
2022/08/29 10:11:30;;;;;;;6.63;3.40;;;24.10;99.90;;;;;;6041427;23;20169;-58
2022/08/29 10:14:02;;;;;;;9.00;3.30;;;24.30;99.90;;;;;;6041483;23;20259;-57
2022/08/29 10:16:40;;;;;;;8.13;3.30;;;24.40;99.90;;;;;;6067074;23;20482;-58
2022/08/29 10:19:15;;;;;;;8.03;3.70;;;24.40;99.90;;;;;;6066573;23;20296;-58
2022/08/29 10:21:55;;;;;;;5.65;3.30;;;24.60;99.90;;;;;;6067008;23;20157;-58
2022/08/29 10:24:47;;;;;;;3.33;3.03;;;25.00;99.90;;;;;;6065297;23;20165;-58
2022/08/29 10:27:32;;;;;;;9.35;3.30;;;25.00;99.90;;;;;;6066891;23;20679;-58
2022/08/29 10:30:10;;;;;;;3.60;3.30;;;25.20;99.90;;;;;;6066782;23;20244;-58
2022/08/29 10:32:57;;;;;;;4.43;3.10;;;25.40;99.90;;;;;;6066787;23;20161;-58
2022/08/29 10:35:29;;;;;;;5.50;3.60;;;25.60;99.90;;;;;;6040834;23;20541;-58
2022/08/29 10:38:05;;;;;;;6.45;3.55;;;25.40;99.90;;;;;;6067177;23;20203;-58
2022/08/29 10:40:41;;;;;;;3.70;3.30;;;25.30;99.90;;;;;;6066953;23;20196;-58
2022/08/29 10:43:33;;;;;;;4.70;3.33;;;25.40;99.90;;;;;;6066606;23;20166;-59
2022/08/29 10:46:11;;;;;;;6.10;3.40;;;25.80;99.90;;;;;;6066532;23;20199;-59
2022/08/29 10:48:49;;;;;;;6.55;3.33;;;26.20;99.90;;;;;;6066116;23;20249;-59
2022/08/29 10:51:22;;;;;;;7.03;3.38;;;26.10;99.90;;;;;;6017312;23;20555;-58
2022/08/29 10:53:58;;;;;;;6.57;3.33;;;26.20;99.90;;;;;;6066035;23;20677;-59
2022/08/29 10:56:32;;;;;;;6.90;3.20;;;26.20;99.90;;;;;;6041137;23;20162;-59
2022/08/29 10:59:08;;;;;;;3.90;2.80;;;26.00;99.90;;;;;;6066273;23;20257;-58
2022/08/29 11:01:42;;;;;;;6.00;3.38;;;26.10;99.90;;;;;;6041528;23;20159;-59
2022/08/29 11:04:17;;;;;;;6.50;3.08;;;26.20;99.90;;;;;;6066419;23;20164;-59
2022/08/29 11:06:56;;;;;;;3.10;2.80;;;26.40;99.90;;;;;;6066230;23;20269;-58
2022/08/29 11:09:31;;;;;;;4.63;2.72;;;26.30;99.90;;;;;;6066554;23;20485;-59
2022/08/29 11:12:15;;;;;;;5.18;3.30;;;26.30;99.90;;;;;;6041631;23;20207;-58
2022/08/29 11:14:48;;;;;;;4.35;3.03;;;26.50;99.90;;;;;;6041299;23;20163;-58
2022/08/29 11:17:19;;;;;;;5.13;3.28;;;26.60;99.90;;;;;;6066351;23;20166;-58
2022/08/29 11:19:57;;;;;;;3.72;3.40;;;26.90;99.90;;;;;;6040903;23;20641;-58
2022/08/29 11:22:31;;;;;;;4.53;2.97;;;27.10;99.90;;;;;;6066118;23;20164;-58
2022/08/29 11:25:05;;;;;;;6.35;3.28;;;27.20;99.90;;;;;;6066545;23;20631;-59
2022/08/29 11:27:44;;;;;;;5.35;3.20;;;27.00;99.90;;;;;;6066158;23;20265;-58
2022/08/29 11:30:20;;;;;;;5.78;2.90;;;26.90;99.90;;;;;;6065883;23;20209;-58
2022/08/29 11:33:04;;;;;;;6.97;3.33;;;26.90;99.90;;;;;;6066046;23;20238;-59
2022/08/29 11:35:41;;;;;;;3.72;2.90;;;27.10;99.90;;;;;;6040332;23;20167;-58
2022/08/29 11:38:53;;;;;;;8.55;3.30;;;26.90;99.90;;;;;;6040374;23;20253;-58
2022/08/29 11:41:28;;;;;;;4.70;2.85;;;26.80;99.90;;;;;;5949932;24;20183;-59
2022/08/29 11:44:10;;;;;;;4.03;3.10;;;26.70;99.90;;;;;;5950657;24;20173;-58
2022/08/29 11:46:41;;;;;;;6.63;3.10;;;26.30;99.90;;;;;;5994609;23;20205;-58
2022/08/29 11:49:37;;;;;;;2.60;2.40;;;26.20;99.90;;;;;;6066168;23;20467;-58
2022/08/29 11:52:22;;;;;;;6.13;2.92;;;26.40;99.90;;;;;;6040184;23;20188;-58
2022/08/29 11:55:16;;;;;;;3.97;2.95;;;26.50;99.90;;;;;;6040296;23;20255;-59
2022/08/29 11:58:06;;;;;;;3.22;2.92;;;26.60;99.90;;;;;;6066437;23;20606;-58
2022/08/29 12:00:49;;;;;;;5.97;3.27;;;26.30;99.90;;;;;;6066031;23;20172;-59
2022/08/29 12:03:45;;;;;;;3.97;3.10;;;26.30;99.90;;;;;;6040544;23;20169;-59
2022/08/29 12:06:21;;;;;;;4.13;2.63;;;26.30;99.90;;;;;;6000495;23;20665;-58
2022/08/29 12:08:56;;;;;;;6.45;3.13;;;26.60;99.90;;;;;;6065819;23;20200;-59
2022/08/29 12:12:07;;;;;;;5.37;3.10;;;26.80;99.90;;;;;;6065747;23;20248;-59
2022/08/29 12:14:38;;;;;;;3.55;2.55;;;26.90;99.90;;;;;;6065454;23;20222;-59
2022/08/29 12:17:09;;;;;;;7.37;2.83;;;26.90;99.90;;;;;;6065485;23;20247;-59
2022/08/29 12:19:52;;;;;;;3.83;2.87;;;26.90;99.90;;;;;;6039678;23;20250;-59
2022/08/29 12:22:56;;;;;;;4.07;2.90;;;26.70;99.90;;;;;;6040197;23;20621;-58
2022/08/29 12:25:33;;;;;;;3.30;3.00;;;26.70;99.90;;;;;;6065804;23;20204;-58
2022/08/29 12:28:25;;;;;;;4.67;2.50;;;26.50;99.90;;;;;;6040740;23;20260;-59
2022/08/29 12:31:22;;;;;;;3.37;2.87;;;26.40;99.90;;;;;;6039396;23;20259;-58
2022/08/29 12:34:04;;;;;;;4.73;2.93;;;26.60;99.90;;;;;;6066010;23;20176;-59
2022/08/29 12:36:44;;;;;;;3.93;2.93;;;26.70;99.90;;;;;;6065690;23;20239;-59
2022/08/29 12:39:45;;;;;;;4.63;2.90;;;26.40;99.90;;;;;;6065686;23;20173;-58
2022/08/29 12:42:24;;;;;;;4.10;2.47;;;26.00;99.90;;;;;;6065859;23;20544;-59
2022/08/29 12:45:00;;;;;;;3.00;2.70;;;26.10;99.90;;;;;;6066124;23;20238;-59
2022/08/29 12:47:33;;;;;;;3.03;2.53;;;26.20;99.90;;;;;;6040023;23;20187;-58
2022/08/29 12:50:06;;;;;;;4.57;2.83;;;26.20;99.90;;;;;;6066110;23;20160;-58
2022/08/29 12:52:37;;;;;;;6.67;3.00;;;26.20;99.90;;;;;;6065657;23;20164;-58
2022/08/29 12:55:22;;;;;;;3.53;2.60;;;26.00;99.90;;;;;;6065779;23;20236;-58
2022/08/29 12:57:57;;;;;;;3.00;2.63;;;25.70;99.90;;;;;;6066042;23;20498;-58
2022/08/29 13:00:28;;;;;;;3.13;2.40;;;26.10;99.90;;;;;;6064876;23;20188;-58
2022/08/29 13:03:01;;;;;;;2.83;2.63;;;26.20;99.90;;;;;;6065398;23;20203;-58
2022/08/29 13:05:33;;;;;;;4.03;2.80;;;26.30;99.90;;;;;;6065808;23;20191;-58
2022/08/29 13:08:06;;;;;;;3.37;2.93;;;26.50;99.90;;;;;;6065379;23;20196;-58
2022/08/29 13:10:52;;;;;;;4.60;2.70;;;26.30;99.90;;;;;;6065689;23;20522;-59
2022/08/29 13:13:23;;;;;;;6.20;2.60;;;26.40;99.90;;;;;;6063811;23;20171;-58
2022/08/29 13:15:53;;;;;;;3.93;2.40;;;26.40;99.90;;;;;;6066242;23;20238;-59
2022/08/29 13:18:23;;;;;;;4.63;2.80;;;26.70;99.90;;;;;;6066677;23;20168;-59